createdAt,value
2023-12-08T00:01:22.832Z,55.50
2023-12-08T00:05:20.780Z,60.50
2023-12-08T00:09:18.861Z,57.50
2023-12-08T00:13:16.845Z,61.30
2023-12-08T00:17:14.805Z,56.50
2023-12-08T00:21:12.871Z,54.20
2023-12-08T00:25:10.805Z,54.40
2023-12-08T00:29:08.796Z,51.40
2023-12-08T00:33:06.915Z,52.90
2023-12-08T00:37:05.764Z,52.50
2023-12-08T00:41:04.794Z,59.10
2023-12-08T00:45:02.738Z,49.80
2023-12-08T00:49:00.856Z,56.50
2023-12-08T00:52:58.730Z,53.20
2023-12-08T00:56:56.761Z,54.90
2023-12-08T01:00:54.786Z,51.80
2023-12-08T01:04:52.824Z,54.10
2023-12-08T01:08:50.767Z,55.40
2023-12-08T01:12:48.781Z,51.20
2023-12-08T01:16:46.881Z,52.70
2023-12-08T01:20:44.743Z,49.20
2023-12-08T01:24:42.709Z,49.60
2023-12-08T01:28:40.742Z,53.10
2023-12-08T01:32:38.781Z,48.00
2023-12-08T01:36:42.469Z,52.50
2023-12-08T01:40:41.702Z,49.90
2023-12-08T01:44:39.711Z,51.00
2023-12-08T01:48:37.767Z,50.00
2023-12-08T01:52:39.729Z,57.20
2023-12-08T01:56:37.669Z,51.40
2023-12-08T02:00:35.752Z,59.60
2023-12-08T02:04:33.661Z,51.80
2023-12-08T02:08:32.692Z,51.90
2023-12-08T02:12:30.642Z,56.60
2023-12-08T02:16:39.689Z,54.90
2023-12-08T02:20:37.671Z,58.80
2023-12-08T02:24:35.603Z,52.20
2023-12-08T02:28:34.605Z,59.30
2023-12-08T02:32:47.739Z,59.30
2023-12-08T02:36:45.614Z,53.80
2023-12-08T02:40:43.629Z,57.00
2023-12-08T02:44:34.762Z,54.30
2023-12-08T02:48:32.667Z,58.40
2023-12-08T02:52:30.577Z,56.60
2023-12-08T02:56:28.608Z,56.50
2023-12-08T03:00:26.555Z,51.60
2023-12-08T03:04:24.618Z,58.30
2023-12-08T03:08:22.538Z,59.40
2023-12-08T03:12:20.622Z,60.70
2023-12-08T03:16:18.549Z,56.30
2023-12-08T03:20:16.621Z,56.10
2023-12-08T03:24:14.544Z,54.00
2023-12-08T03:28:12.522Z,53.10
2023-12-08T03:32:10.556Z,60.10
2023-12-08T03:36:08.543Z,63.60
2023-12-08T03:40:06.493Z,61.80
2023-12-08T03:44:04.531Z,67.70
2023-12-08T03:48:02.620Z,54.30
2023-12-08T03:52:00.534Z,62.30
2023-12-08T03:55:58.476Z,54.20
2023-12-08T03:59:58.546Z,58.90
2023-12-08T04:03:56.522Z,58.90
2023-12-08T04:07:54.476Z,58.50
2023-12-08T04:11:52.520Z,58.50
2023-12-08T04:15:50.507Z,59.40
2023-12-08T04:19:48.447Z,58.70
2023-12-08T04:23:46.601Z,57.00
2023-12-08T04:27:44.440Z,66.00
2023-12-08T04:31:42.447Z,64.00
2023-12-08T04:35:40.479Z,57.20
2023-12-08T04:39:38.446Z,60.30
2023-12-08T04:43:36.447Z,57.90
2023-12-08T04:47:34.551Z,59.20
2023-12-08T04:51:32.416Z,57.50
2023-12-08T04:55:30.443Z,60.50
2023-12-08T04:59:28.422Z,63.40
2023-12-08T05:03:26.539Z,57.00
2023-12-08T05:07:24.611Z,62.70
2023-12-08T05:11:22.378Z,57.90
2023-12-08T05:15:20.415Z,57.60
2023-12-08T05:19:18.587Z,62.10
2023-12-08T05:23:16.347Z,67.20
2023-12-08T05:27:14.526Z,52.70
2023-12-08T05:31:12.485Z,57.80
2023-12-08T05:35:10.365Z,62.10
2023-12-08T05:39:08.363Z,60.20
2023-12-08T05:43:06.367Z,61.80
2023-12-08T05:47:04.339Z,65.50
2023-12-08T05:51:02.390Z,60.70
2023-12-08T05:55:00.431Z,64.80
2023-12-08T05:58:58.384Z,60.50
2023-12-08T06:02:56.329Z,57.30
2023-12-08T06:06:54.408Z,57.70
2023-12-08T06:10:52.274Z,59.80
2023-12-08T06:14:50.337Z,62.00
2023-12-08T06:18:48.398Z,62.60
2023-12-08T06:22:46.281Z,67.80
2023-12-08T06:26:44.293Z,64.10
2023-12-08T06:30:42.357Z,59.80
2023-12-08T06:34:40.395Z,62.00
2023-12-08T06:38:38.328Z,56.70
2023-12-08T06:42:36.216Z,57.50
2023-12-08T06:46:34.279Z,58.10
2023-12-08T06:50:32.250Z,57.90
2023-12-08T06:54:30.241Z,54.00
2023-12-08T06:58:28.265Z,65.10
2023-12-08T07:02:06.010Z,62.80
2023-12-08T07:05:30.087Z,55.80
2023-12-08T07:08:54.271Z,59.50
2023-12-08T07:12:18.705Z,60.60
2023-12-08T07:15:42.746Z,57.40
2023-12-08T07:19:07.125Z,64.00
2023-12-08T07:22:31.684Z,64.10
2023-12-08T07:25:55.862Z,61.90
2023-12-08T07:29:20.405Z,61.70
2023-12-08T07:32:44.707Z,56.60
2023-12-08T07:36:09.051Z,64.40
2023-12-08T07:39:33.177Z,64.10
2023-12-08T07:42:57.385Z,59.40
2023-12-08T07:46:21.500Z,56.80
2023-12-08T07:49:45.746Z,66.10
2023-12-08T07:53:09.934Z,62.40
2023-12-08T07:56:35.082Z,56.20
2023-12-08T07:59:59.436Z,60.70
2023-12-08T08:03:23.755Z,58.20
2023-12-08T08:06:48.599Z,66.50
2023-12-08T08:10:12.744Z,61.70
2023-12-08T08:13:37.412Z,59.20
2023-12-08T08:17:01.796Z,61.90
2023-12-08T08:20:26.867Z,62.90
2023-12-08T08:23:51.499Z,60.60
2023-12-08T08:27:15.610Z,65.00
2023-12-08T08:30:40.471Z,60.10
2023-12-08T08:34:06.218Z,64.90
2023-12-08T08:40:55.004Z,60.40
2023-12-08T08:44:19.166Z,70.90
2023-12-08T08:47:43.285Z,58.80
2023-12-08T08:51:07.969Z,63.10
2023-12-08T08:54:32.000Z,67.20
2023-12-08T08:57:56.849Z,69.20
2023-12-08T09:01:20.932Z,60.70
2023-12-08T09:04:45.142Z,67.20
2023-12-08T09:08:10.336Z,62.40
2023-12-08T09:11:34.348Z,52.30
2023-12-08T09:14:58.571Z,53.50
2023-12-08T09:18:22.768Z,58.80
2023-12-08T09:21:53.849Z,58.30
2023-12-08T09:25:19.227Z,60.10
2023-12-08T09:28:43.189Z,62.00
2023-12-08T09:32:08.331Z,58.10
2023-12-08T09:35:32.679Z,54.20
2023-12-08T09:38:56.906Z,56.30
2023-12-08T09:42:32.521Z,56.00
2023-12-08T09:45:57.303Z,61.90
2023-12-08T09:49:30.588Z,58.90
2023-12-08T09:52:56.178Z,53.90
2023-12-08T09:56:20.983Z,54.80
2023-12-08T09:59:47.795Z,59.50
2023-12-08T10:03:12.046Z,53.50
2023-12-08T10:06:37.616Z,49.60
2023-12-08T10:10:02.500Z,51.60
2023-12-08T10:13:27.358Z,54.50
2023-12-08T10:16:51.518Z,53.00
2023-12-08T10:20:16.239Z,55.00
2023-12-08T10:23:41.206Z,54.90
2023-12-08T10:27:06.088Z,59.10
2023-12-08T10:30:30.152Z,56.90
2023-12-08T10:33:55.644Z,52.10
2023-12-08T10:40:51.632Z,47.60
2023-12-08T10:44:15.678Z,53.40
2023-12-08T10:47:45.394Z,53.70
2023-12-08T10:51:15.027Z,62.10
2023-12-08T10:54:39.356Z,55.40
2023-12-08T10:58:07.843Z,56.30
2023-12-08T11:01:36.072Z,57.40
2023-12-08T11:05:08.952Z,51.10
2023-12-08T11:08:34.293Z,46.50
2023-12-08T11:12:04.656Z,56.70
2023-12-08T11:15:33.847Z,59.80
2023-12-08T11:18:58.411Z,61.20
2023-12-08T11:22:22.852Z,54.90
2023-12-08T11:26:00.539Z,52.00
2023-12-08T11:29:50.190Z,48.40
2023-12-08T11:33:29.374Z,47.70
2023-12-08T11:36:53.462Z,47.40
2023-12-08T11:40:18.716Z,54.20
2023-12-08T11:43:47.139Z,44.90
2023-12-08T11:47:12.305Z,47.30
2023-12-08T11:50:36.498Z,45.50
2023-12-08T11:54:06.881Z,41.10
2023-12-08T11:57:31.316Z,42.40
2023-12-08T12:00:58.904Z,44.30
2023-12-08T12:04:24.489Z,46.10
2023-12-08T12:07:50.810Z,50.00
2023-12-08T12:11:19.810Z,42.60
2023-12-08T12:14:49.853Z,52.70
2023-12-08T12:18:15.521Z,42.60
2023-12-08T12:21:39.730Z,41.70
2023-12-08T12:25:04.261Z,44.60
2023-12-08T12:28:28.500Z,46.80
2023-12-08T12:31:52.672Z,41.30
2023-12-08T12:35:17.743Z,49.60
2023-12-08T12:38:43.857Z,49.60
2023-12-08T12:42:08.220Z,51.80
2023-12-08T12:45:34.837Z,49.10
2023-12-08T12:48:59.484Z,45.50
2023-12-08T12:52:24.476Z,51.80
2023-12-08T12:55:50.772Z,49.80
2023-12-08T12:59:14.953Z,48.20
2023-12-08T13:02:38.927Z,49.90
2023-12-08T13:06:02.937Z,52.80
2023-12-08T13:09:30.589Z,52.00
2023-12-08T13:12:54.784Z,49.20
2023-12-08T13:16:19.140Z,51.10
2023-12-08T13:19:43.243Z,48.30
2023-12-08T13:23:07.458Z,57.00
2023-12-08T13:26:33.423Z,53.90
2023-12-08T13:29:58.357Z,59.10
2023-12-08T13:33:23.378Z,58.00
2023-12-08T13:36:47.477Z,53.10
2023-12-08T13:40:13.464Z,51.70
2023-12-08T13:43:37.714Z,55.00
2023-12-08T13:47:01.894Z,48.20
2023-12-08T13:50:26.035Z,50.70
2023-12-08T13:53:50.443Z,49.60
2023-12-08T13:57:14.682Z,53.70
2023-12-08T14:00:38.785Z,58.30
2023-12-08T14:04:03.084Z,55.30
2023-12-08T14:07:27.462Z,57.80
2023-12-08T14:10:51.711Z,51.50
2023-12-08T14:14:15.876Z,50.00
2023-12-08T14:17:40.152Z,52.50
2023-12-08T14:21:04.500Z,56.20
2023-12-08T14:24:29.087Z,53.00
2023-12-08T14:27:53.203Z,53.30
2023-12-08T14:31:37.620Z,50.00
2023-12-08T14:35:35.878Z,53.00
2023-12-08T14:39:33.613Z,59.10
2023-12-08T14:43:31.709Z,50.80
2023-12-08T14:47:29.771Z,45.80
2023-12-08T14:51:37.619Z,47.60
2023-12-08T14:55:35.645Z,47.10
2023-12-08T14:59:33.644Z,50.00
2023-12-08T15:03:31.681Z,56.10
2023-12-08T15:07:29.652Z,49.30
2023-12-08T15:11:28.581Z,55.50
2023-12-08T15:15:35.127Z,52.70
2023-12-08T15:19:41.266Z,50.40
2023-12-08T15:23:40.604Z,49.00
2023-12-08T15:27:41.569Z,50.70
2023-12-08T15:31:40.556Z,48.20
2023-12-08T15:35:38.543Z,56.70
2023-12-08T15:39:37.616Z,57.80
2023-12-08T15:43:35.532Z,52.20
2023-12-08T15:47:33.654Z,51.40
2023-12-08T15:51:31.498Z,51.30
2023-12-08T15:55:30.633Z,54.60
2023-12-08T15:59:28.497Z,48.30
2023-12-08T16:03:26.632Z,52.70
2023-12-08T16:07:24.888Z,44.80
2023-12-08T16:11:23.524Z,46.70
2023-12-08T16:15:21.487Z,40.50
2023-12-08T16:19:19.681Z,42.30
2023-12-08T16:23:17.454Z,44.40
2023-12-08T16:27:15.513Z,42.50
2023-12-08T16:31:13.480Z,44.50
2023-12-08T16:35:11.588Z,39.10
2023-12-08T16:39:11.490Z,45.10
2023-12-08T16:43:09.450Z,51.00
2023-12-08T16:47:07.446Z,47.20
2023-12-08T16:51:05.510Z,43.60
2023-12-08T16:55:03.442Z,42.60
2023-12-08T16:59:01.530Z,41.60
2023-12-08T17:02:59.429Z,39.90
2023-12-08T17:07:00.120Z,40.80
2023-12-08T17:10:58.464Z,45.70
2023-12-08T17:14:56.467Z,49.70
2023-12-08T17:18:54.565Z,40.80
2023-12-08T17:22:52.507Z,40.80
2023-12-08T17:26:36.711Z,40.40
2023-12-08T17:30:06.400Z,44.50
2023-12-08T17:33:30.855Z,42.70
2023-12-08T17:36:55.058Z,42.50
2023-12-08T17:40:19.172Z,41.50
2023-12-08T17:43:43.854Z,48.50
2023-12-08T17:47:10.381Z,44.50
2023-12-08T17:50:34.750Z,47.20
2023-12-08T17:53:59.097Z,47.70
2023-12-08T17:57:23.472Z,36.10
2023-12-08T18:00:47.796Z,42.60
2023-12-08T18:04:12.293Z,40.20
2023-12-08T18:07:36.827Z,41.60
2023-12-08T18:11:00.757Z,48.20
2023-12-08T18:14:24.728Z,41.80
2023-12-08T18:17:50.474Z,39.70
2023-12-08T18:21:23.921Z,45.60
2023-12-08T18:24:48.192Z,51.80
2023-12-08T18:28:39.935Z,44.30
2023-12-08T18:31:56.492Z,43.10
2023-12-08T18:35:20.498Z,41.70
2023-12-08T18:38:44.582Z,46.50
2023-12-08T18:42:09.624Z,40.50
2023-12-08T18:45:33.944Z,50.60
2023-12-08T18:49:00.750Z,50.10
2023-12-08T18:52:25.331Z,43.40
2023-12-08T18:55:49.685Z,48.40
2023-12-08T18:59:13.782Z,49.80
2023-12-08T19:02:37.997Z,46.20
2023-12-08T19:06:02.054Z,48.00
2023-12-08T19:09:26.298Z,43.00
2023-12-08T19:12:50.464Z,42.70
2023-12-08T19:16:14.522Z,38.50
2023-12-08T19:19:38.696Z,41.60
2023-12-08T19:23:02.760Z,42.60
2023-12-08T19:26:26.849Z,42.90
2023-12-08T19:29:51.085Z,39.50
2023-12-08T19:33:15.233Z,43.90
2023-12-08T19:36:39.447Z,39.60
2023-12-08T19:40:03.712Z,49.30
2023-12-08T19:43:29.598Z,49.70
2023-12-08T19:46:54.724Z,47.90
2023-12-08T19:50:19.488Z,43.40
2023-12-08T19:53:43.549Z,45.90
2023-12-08T19:57:10.423Z,47.30
2023-12-08T20:00:34.614Z,43.00
2023-12-08T20:03:58.793Z,38.50
2023-12-08T20:07:23.901Z,44.50
2023-12-08T20:10:48.167Z,40.50
2023-12-08T20:14:12.237Z,45.50
2023-12-08T20:17:36.289Z,48.50
2023-12-08T20:21:00.449Z,46.10
2023-12-08T20:24:24.810Z,42.50
2023-12-08T20:27:50.197Z,50.10
2023-12-08T20:31:21.904Z,42.00
2023-12-08T20:34:46.056Z,47.20
2023-12-08T20:38:10.075Z,45.30
2023-12-08T20:41:34.136Z,45.00
2023-12-08T20:44:58.132Z,46.80
2023-12-08T20:48:22.340Z,48.10
2023-12-08T20:51:46.802Z,47.30
2023-12-08T20:55:11.286Z,44.30
2023-12-08T20:58:35.707Z,49.10
2023-12-08T21:01:59.807Z,46.20
2023-12-08T21:05:23.923Z,43.90
2023-12-08T21:08:48.245Z,49.40
2023-12-08T21:12:12.725Z,51.50
2023-12-08T21:15:37.001Z,46.50
2023-12-08T21:19:01.392Z,45.60
2023-12-08T21:22:25.683Z,53.30
2023-12-08T21:25:49.710Z,54.80
2023-12-08T21:29:13.700Z,50.60
2023-12-08T21:32:38.884Z,54.90
2023-12-08T21:36:03.990Z,53.30
2023-12-08T21:39:28.335Z,47.60
2023-12-08T21:42:54.429Z,46.50
2023-12-08T21:46:18.582Z,50.80
2023-12-08T21:49:43.042Z,54.10
2023-12-08T21:53:07.923Z,57.40
2023-12-08T21:56:32.008Z,57.90
2023-12-08T21:59:56.046Z,47.70
2023-12-08T22:03:21.789Z,49.90
2023-12-08T22:10:11.013Z,49.50
2023-12-08T22:13:35.105Z,47.80
2023-12-08T22:16:59.216Z,55.50
2023-12-08T22:20:23.249Z,53.00
2023-12-08T22:23:47.597Z,60.50
2023-12-08T22:27:11.630Z,62.00
2023-12-08T22:30:36.167Z,54.70
2023-12-08T22:34:00.485Z,58.00
2023-12-08T22:37:25.005Z,53.90
2023-12-08T22:40:49.128Z,51.00
2023-12-08T22:44:13.289Z,55.20
2023-12-08T22:47:37.215Z,51.20
2023-12-08T22:51:07.452Z,47.90
2023-12-08T22:54:38.084Z,53.40
2023-12-08T22:58:02.187Z,55.00
2023-12-08T23:01:26.150Z,50.50
2023-12-08T23:04:50.275Z,58.00
2023-12-08T23:08:14.594Z,58.90
2023-12-08T23:11:39.127Z,54.70
2023-12-08T23:15:04.617Z,59.60
2023-12-08T23:18:28.780Z,58.20
2023-12-08T23:21:52.991Z,50.70
2023-12-08T23:25:17.195Z,52.90
2023-12-08T23:28:41.791Z,58.60
2023-12-08T23:32:06.260Z,54.80
2023-12-08T23:35:31.128Z,49.30
2023-12-08T23:38:55.466Z,48.70
2023-12-08T23:42:19.468Z,59.90
2023-12-08T23:45:43.637Z,52.40
2023-12-08T23:49:08.177Z,53.40
2023-12-08T23:52:32.271Z,52.40
2023-12-08T23:55:56.217Z,55.10
2023-12-08T23:59:20.206Z,53.80
